Time;durP1;ratioP1;P1;durP2;ratioP2;P2;SDS_P1;SDS_P2;PMS_P1;PMS_P2;Temp;Humidity;BMP_temperature;BMP_pressure;BME280_temperature;BME280_humidity;BME280_pressure;Samples;Min_cycle;Max_cycle;Signal;HPM_P1;HPM_P2
2022/07/22 00:00:53;;;;;;;;;;;25.60;55.60;;;;;;5003606;28;19929;-80
2022/07/22 00:03:21;;;;;;;;;;;25.60;55.70;;;;;;5003206;28;19929;-79
2022/07/22 00:05:47;;;;;;;;;;;25.60;55.70;;;;;;5002338;28;19938;-79
2022/07/22 00:08:14;;;;;;;;;;;25.50;55.70;;;;;;5002891;28;19937;-79
2022/07/22 00:10:41;;;;;;;;;;;25.50;55.80;;;;;;5004040;28;19929;-80
2022/07/22 00:13:07;;;;;;;;;;;25.50;55.80;;;;;;5006824;28;20761;-80
2022/07/22 00:15:34;;;;;;;;;;;25.40;55.70;;;;;;5002500;28;19929;-80
2022/07/22 00:18:01;;;;;;;;;;;25.40;55.80;;;;;;5000898;28;20469;-80
2022/07/22 00:20:29;;;;;;;;;;;25.40;56.00;;;;;;5002863;28;19940;-80
2022/07/22 00:22:55;;;;;;;;;;;25.30;55.90;;;;;;5008467;28;19933;-79
2022/07/22 00:25:22;;;;;;;;;;;25.30;56.10;;;;;;5004185;28;19976;-80
2022/07/22 00:27:48;;;;;;;;;;;25.30;56.20;;;;;;5004519;28;19945;-80
2022/07/22 00:30:15;;;;;;;;;;;25.30;56.20;;;;;;4999215;28;19988;-80
2022/07/22 00:32:41;;;;;;;;;;;25.20;56.20;;;;;;5004898;28;20323;-80
2022/07/22 00:35:08;;;;;;;;;;;25.20;56.30;;;;;;5002897;28;19929;-79
2022/07/22 00:37:36;;;;;;;;;;;25.10;56.40;;;;;;5004568;28;19934;-80
2022/07/22 00:40:03;;;;;;;;;;;25.10;56.50;;;;;;5005403;28;19929;-80
2022/07/22 00:42:30;;;;;;;;;;;25.10;56.50;;;;;;5003173;28;19936;-79
2022/07/22 00:44:56;;;;;;;;;;;25.10;56.60;;;;;;5004110;28;19925;-79
2022/07/22 00:47:23;;;;;;;;;;;25.00;56.50;;;;;;5005552;28;19929;-80
2022/07/22 00:49:50;;;;;;;;;;;25.00;56.60;;;;;;5007642;28;20789;-80
2022/07/22 00:52:16;;;;;;;;;;;25.00;56.70;;;;;;5004131;28;19940;-80
2022/07/22 00:54:44;;;;;;;;;;;25.00;56.80;;;;;;5010267;28;19937;-79
2022/07/22 00:57:11;;;;;;;;;;;24.90;56.90;;;;;;5004913;28;19925;-79
2022/07/22 00:59:37;;;;;;;;;;;24.90;57.00;;;;;;5009862;28;19929;-80
2022/07/22 01:02:04;;;;;;;;;;;24.90;57.40;;;;;;5002636;28;19940;-79
2022/07/22 01:04:31;;;;;;;;;;;24.90;57.20;;;;;;5014285;28;19930;-80
2022/07/22 01:06:57;;;;;;;;;;;24.80;57.40;;;;;;5005821;28;20435;-80
2022/07/22 01:09:24;;;;;;;;;;;24.80;57.40;;;;;;5018395;28;19940;-79
2022/07/22 01:11:52;;;;;;;;;;;24.70;57.50;;;;;;5010334;28;20398;-80
2022/07/22 01:14:18;;;;;;;;;;;24.70;57.60;;;;;;5008932;28;19933;-79
2022/07/22 01:16:45;;;;;;;;;;;24.70;57.60;;;;;;5008550;28;19930;-79
2022/07/22 01:19:12;;;;;;;;;;;24.60;57.70;;;;;;5012815;28;20002;-80
2022/07/22 01:21:40;;;;;;;;;;;24.70;57.70;;;;;;5008343;28;19929;-79
2022/07/22 01:24:07;;;;;;;;;;;24.60;57.80;;;;;;5008044;28;19930;-79
2022/07/22 01:26:34;;;;;;;;;;;24.60;58.00;;;;;;5005035;28;19934;-80
2022/07/22 01:29:01;;;;;;;;;;;24.50;58.00;;;;;;5007724;28;19948;-80
2022/07/22 01:31:27;;;;;;;;;;;24.50;58.60;;;;;;5004075;28;19937;-79
2022/07/22 01:33:54;;;;;;;;;;;24.50;58.20;;;;;;5002096;28;20523;-80
2022/07/22 01:36:21;;;;;;;;;;;24.50;58.30;;;;;;5009228;28;20345;-79
2022/07/22 01:38:49;;;;;;;;;;;24.40;58.30;;;;;;5004912;28;19940;-80
2022/07/22 01:41:16;;;;;;;;;;;24.40;58.40;;;;;;5003696;28;19934;-80
2022/07/22 01:43:42;;;;;;;;;;;24.40;58.60;;;;;;5005961;28;19934;-80
2022/07/22 01:46:09;;;;;;;;;;;24.30;58.60;;;;;;5006585;28;19929;-80
2022/07/22 01:48:35;;;;;;;;;;;24.30;58.60;;;;;;5005423;28;19934;-80
2022/07/22 01:51:02;;;;;;;;;;;24.30;58.70;;;;;;5006653;28;19940;-80
2022/07/22 01:53:29;;;;;;;;;;;24.20;58.60;;;;;;5005689;28;19930;-80
2022/07/22 01:55:57;;;;;;;;;;;24.20;58.70;;;;;;5002284;28;19936;-79
2022/07/22 01:58:23;;;;;;;;;;;24.20;58.80;;;;;;5006018;28;20411;-80
2022/07/22 02:00:50;;;;;;;;;;;24.20;58.90;;;;;;5002781;28;20694;-79
2022/07/22 02:03:17;;;;;;;;;;;24.20;58.90;;;;;;5007153;28;19941;-79
2022/07/22 02:05:45;;;;;;;;;;;24.10;59.00;;;;;;5001598;28;19933;-79
2022/07/22 02:08:12;;;;;;;;;;;24.10;59.00;;;;;;5007011;28;20398;-79
2022/07/22 02:10:38;;;;;;;;;;;24.10;59.20;;;;;;5005143;28;20389;-79
2022/07/22 02:13:06;;;;;;;;;;;24.00;59.20;;;;;;5005587;28;20660;-79
2022/07/22 02:15:33;;;;;;;;;;;24.00;59.30;;;;;;5005071;28;19940;-79
2022/07/22 02:18:00;;;;;;;;;;;24.00;59.40;;;;;;5008375;28;20000;-79
2022/07/22 02:20:26;;;;;;;;;;;24.00;59.40;;;;;;5004337;28;19929;-79
2022/07/22 02:22:53;;;;;;;;;;;23.90;59.60;;;;;;5011564;28;19929;-80
2022/07/22 02:25:19;;;;;;;;;;;23.90;59.50;;;;;;5001888;28;19937;-79
2022/07/22 02:27:46;;;;;;;;;;;23.90;59.50;;;;;;5004232;28;19937;-79
2022/07/22 02:30:14;;;;;;;;;;;23.90;59.60;;;;;;5007469;28;19930;-79
2022/07/22 02:32:40;;;;;;;;;;;23.90;59.70;;;;;;5007406;28;19937;-79
2022/07/22 02:35:07;;;;;;;;;;;23.80;59.60;;;;;;5009637;28;19929;-80
2022/07/22 02:37:34;;;;;;;;;;;23.80;59.70;;;;;;5003230;28;19933;-79
2022/07/22 02:40:01;;;;;;;;;;;23.80;59.80;;;;;;5008540;28;19930;-79
2022/07/22 02:42:27;;;;;;;;;;;23.70;59.90;;;;;;5002874;28;19930;-79
2022/07/22 02:44:54;;;;;;;;;;;23.70;60.00;;;;;;5030112;23;19940;-71
2022/07/22 02:47:22;;;;;;;;;;;23.70;60.00;;;;;;5021940;28;19935;-70
2022/07/22 02:49:48;;;;;;;;;;;23.70;60.00;;;;;;5020011;28;19940;-70
2022/07/22 02:52:15;;;;;;;;;;;23.60;60.10;;;;;;5023947;28;19936;-71
2022/07/22 02:54:42;;;;;;;;;;;23.60;60.20;;;;;;5019495;28;19933;-71
2022/07/22 02:57:08;;;;;;;;;;;23.60;60.30;;;;;;5013534;28;20420;-71
2022/07/22 02:59:35;;;;;;;;;;;23.60;60.40;;;;;;5018923;28;19933;-70
2022/07/22 03:02:01;;;;;;;;;;;23.60;60.50;;;;;;5017694;28;19936;-71
2022/07/22 03:04:29;;;;;;;;;;;23.50;60.50;;;;;;5019780;28;20344;-71
2022/07/22 03:06:56;;;;;;;;;;;23.50;60.60;;;;;;5017885;28;19955;-71
2022/07/22 03:09:22;;;;;;;;;;;23.50;61.00;;;;;;5020323;28;19936;-70
2022/07/22 03:11:49;;;;;;;;;;;23.40;60.70;;;;;;5010306;28;19936;-70
2022/07/22 03:14:16;;;;;;;;;;;23.40;60.80;;;;;;5014410;28;19968;-70
2022/07/22 03:16:42;;;;;;;;;;;23.40;60.90;;;;;;5012187;28;20616;-70
2022/07/22 03:19:09;;;;;;;;;;;23.30;60.90;;;;;;5017492;28;20408;-71
2022/07/22 03:21:37;;;;;;;;;;;23.30;61.00;;;;;;5018324;28;19933;-71
2022/07/22 03:24:04;;;;;;;;;;;23.30;61.10;;;;;;5022645;28;19929;-70
2022/07/22 03:26:30;;;;;;;;;;;23.30;61.20;;;;;;5015567;28;19929;-71
2022/07/22 03:28:57;;;;;;;;;;;23.30;61.20;;;;;;5018971;28;19936;-69
2022/07/22 03:31:24;;;;;;;;;;;23.20;61.30;;;;;;5012900;28;19940;-70
2022/07/22 03:33:50;;;;;;;;;;;23.20;61.40;;;;;;5020263;28;19936;-70
2022/07/22 03:36:17;;;;;;;;;;;23.20;61.50;;;;;;5021823;28;19929;-71
2022/07/22 03:38:45;;;;;;;;;;;23.20;61.40;;;;;;5022799;28;20024;-70
2022/07/22 03:41:11;;;;;;;;;;;23.10;61.50;;;;;;5014213;28;19929;-70
2022/07/22 03:43:38;;;;;;;;;;;23.10;61.50;;;;;;5015381;28;19940;-70
2022/07/22 03:46:05;;;;;;;;;;;23.10;61.70;;;;;;5017846;28;19929;-70
2022/07/22 03:48:31;;;;;;;;;;;23.10;61.70;;;;;;5021658;28;19928;-71
2022/07/22 03:50:58;;;;;;;;;;;23.00;61.70;;;;;;5018263;28;19933;-70
2022/07/22 03:53:24;;;;;;;;;;;23.00;61.80;;;;;;5023002;28;19933;-70
2022/07/22 03:55:52;;;;;;;;;;;23.00;61.80;;;;;;5022243;28;19929;-70
2022/07/22 03:58:18;;;;;;;;;;;22.90;61.90;;;;;;5015332;28;19933;-70
2022/07/22 04:00:45;;;;;;;;;;;22.90;62.00;;;;;;5022207;28;19929;-70
2022/07/22 04:03:12;;;;;;;;;;;22.90;62.00;;;;;;5022176;28;19953;-71
2022/07/22 04:05:38;;;;;;;;;;;22.90;62.10;;;;;;5018235;28;19933;-70
2022/07/22 04:08:05;;;;;;;;;;;22.80;62.10;;;;;;5019853;28;19934;-70
2022/07/22 04:10:32;;;;;;;;;;;22.90;62.20;;;;;;5021852;28;19929;-71
2022/07/22 04:12:59;;;;;;;;;;;22.80;62.20;;;;;;5014916;28;19937;-70
2022/07/22 04:15:26;;;;;;;;;;;22.80;62.20;;;;;;5019302;28;19932;-70
2022/07/22 04:17:53;;;;;;;;;;;22.80;62.30;;;;;;5020118;28;19940;-70
2022/07/22 04:20:19;;;;;;;;;;;22.80;62.50;;;;;;5026461;28;19929;-70
2022/07/22 04:22:46;;;;;;;;;;;22.80;62.50;;;;;;5015749;28;19933;-71
2022/07/22 04:25:12;;;;;;;;;;;22.70;62.60;;;;;;5022002;28;19952;-71
2022/07/22 04:27:39;;;;;;;;;;;22.70;63.40;;;;;;5014748;28;19937;-71
2022/07/22 04:30:08;;;;;;;;;;;22.70;62.80;;;;;;5019692;28;19937;-70
2022/07/22 04:32:34;;;;;;;;;;;22.70;62.80;;;;;;5019607;28;19933;-70
2022/07/22 04:35:01;;;;;;;;;;;22.70;62.90;;;;;;5028701;28;19936;-70
2022/07/22 04:37:27;;;;;;;;;;;22.60;62.90;;;;;;5019856;28;19929;-70
2022/07/22 04:39:54;;;;;;;;;;;22.60;62.90;;;;;;5031600;28;19948;-70
2022/07/22 04:42:21;;;;;;;;;;;22.60;63.00;;;;;;5021278;28;19955;-71
2022/07/22 04:44:47;;;;;;;;;;;22.50;63.00;;;;;;5023517;28;19929;-70
2022/07/22 04:47:15;;;;;;;;;;;22.50;63.00;;;;;;5023001;28;20012;-70
2022/07/22 04:49:41;;;;;;;;;;;22.50;63.10;;;;;;5025278;28;19929;-70
2022/07/22 04:52:09;;;;;;;;;;;22.50;63.20;;;;;;5021328;28;20282;-70
2022/07/22 04:54:36;;;;;;;;;;;22.50;63.30;;;;;;5034022;28;19935;-71
2022/07/22 04:57:02;;;;;;;;;;;22.40;63.30;;;;;;5034257;28;19929;-70
2022/07/22 04:59:29;;;;;;;;;;;22.40;63.40;;;;;;5022276;28;19964;-70
2022/07/22 05:01:55;;;;;;;;;;;22.50;63.50;;;;;;5020560;28;19929;-70
2022/07/22 05:04:23;;;;;;;;;;;22.40;63.40;;;;;;5020148;28;19928;-70
2022/07/22 05:06:50;;;;;;;;;;;22.40;63.50;;;;;;5023698;28;19936;-70
2022/07/22 05:09:16;;;;;;;;;;;22.30;63.90;;;;;;5028519;28;19940;-71
2022/07/22 05:11:43;;;;;;;;;;;22.40;63.70;;;;;;5021772;28;20317;-70
2022/07/22 05:14:09;;;;;;;;;;;22.30;63.60;;;;;;5029729;28;19971;-70
2022/07/22 05:16:36;;;;;;;;;;;22.30;63.70;;;;;;5025249;28;19940;-70
2022/07/22 05:19:03;;;;;;;;;;;22.30;63.80;;;;;;5030566;28;19929;-71
2022/07/22 05:21:31;;;;;;;;;;;22.30;63.80;;;;;;5029487;28;20502;-69
2022/07/22 05:23:58;;;;;;;;;;;22.30;63.80;;;;;;5025252;28;20289;-70
2022/07/22 05:26:24;;;;;;;;;;;22.30;63.90;;;;;;5019771;28;20012;-70
2022/07/22 05:28:51;;;;;;;;;;;22.30;64.00;;;;;;5023862;28;20036;-70
2022/07/22 05:31:17;;;;;;;;;;;22.30;64.00;;;;;;5029272;28;19936;-70
2022/07/22 05:33:44;;;;;;;;;;;22.20;63.90;;;;;;5027004;28;19933;-71
2022/07/22 05:36:10;;;;;;;;;;;22.20;63.90;;;;;;5025597;28;19929;-70
2022/07/22 05:38:38;;;;;;;;;;;22.20;63.90;;;;;;5025864;28;19924;-70
2022/07/22 05:41:05;;;;;;;;;;;22.20;64.00;;;;;;5026689;28;19933;-70
2022/07/22 05:43:32;;;;;;;;;;;22.20;64.10;;;;;;5023475;28;19933;-69
2022/07/22 05:45:58;;;;;;;;;;;22.20;65.80;;;;;;5026872;28;19929;-69
2022/07/22 05:48:25;;;;;;;;;;;21.90;67.10;;;;;;5025389;28;19973;-69
2022/07/22 05:50:51;;;;;;;;;;;21.80;67.60;;;;;;5029186;28;19932;-69
2022/07/22 05:53:18;;;;;;;;;;;21.80;68.40;;;;;;5024858;28;19925;-69
2022/07/22 05:55:46;;;;;;;;;;;21.80;67.50;;;;;;5027481;28;20460;-69
2022/07/22 05:58:12;;;;;;;;;;;21.80;67.30;;;;;;5014784;28;19936;-69
2022/07/22 06:00:40;;;;;;;;;;;21.80;67.10;;;;;;5023748;28;19929;-69
2022/07/22 06:03:06;;;;;;;;;;;21.90;66.90;;;;;;5025605;28;19988;-69
2022/07/22 06:05:35;;;;;;;;;;;21.90;66.70;;;;;;5024235;28;19937;-69
2022/07/22 06:08:01;;;;;;;;;;;21.90;66.50;;;;;;5020876;28;19941;-69
2022/07/22 06:10:28;;;;;;;;;;;21.90;66.30;;;;;;5020032;28;19929;-69
2022/07/22 06:12:56;;;;;;;;;;;22.00;66.20;;;;;;5024401;28;20010;-69
2022/07/22 06:15:23;;;;;;;;;;;22.00;66.10;;;;;;5005347;28;19937;-70
2022/07/22 06:17:50;;;;;;;;;;;22.00;66.00;;;;;;5019177;28;20065;-70
2022/07/22 06:20:16;;;;;;;;;;;22.00;65.80;;;;;;5021694;28;19929;-74
2022/07/22 06:22:43;;;;;;;;;;;22.10;65.90;;;;;;5012727;28;19937;-74
2022/07/22 06:25:09;;;;;;;;;;;22.10;65.90;;;;;;5010351;28;19938;-74
2022/07/22 06:27:36;;;;;;;;;;;22.10;65.80;;;;;;5018184;28;19936;-75
2022/07/22 06:30:04;;;;;;;;;;;22.10;65.70;;;;;;5017990;28;20687;-75
2022/07/22 06:32:31;;;;;;;;;;;22.10;66.40;;;;;;5027142;28;20642;-75
2022/07/22 06:34:57;;;;;;;;;;;22.10;65.70;;;;;;5034217;28;19929;-75
2022/07/22 06:37:24;;;;;;;;;;;22.10;65.60;;;;;;5023931;28;19952;-74
2022/07/22 06:39:50;;;;;;;;;;;22.10;65.60;;;;;;5029581;28;20312;-75
2022/07/22 06:42:17;;;;;;;;;;;22.10;65.50;;;;;;5022509;28;19936;-76
2022/07/22 06:44:44;;;;;;;;;;;22.20;65.50;;;;;;5023595;28;19955;-75
2022/07/22 06:47:11;;;;;;;;;;;22.20;65.50;;;;;;5021406;28;20314;-75
2022/07/22 06:49:38;;;;;;;;;;;22.10;65.40;;;;;;5030870;28;20320;-75
2022/07/22 06:52:05;;;;;;;;;;;22.20;65.50;;;;;;5021259;28;19929;-75
2022/07/22 06:54:31;;;;;;;;;;;22.20;65.50;;;;;;5025900;28;19940;-75
2022/07/22 06:56:58;;;;;;;;;;;22.20;65.40;;;;;;5026109;28;19937;-74
2022/07/22 06:59:25;;;;;;;;;;;22.20;65.40;;;;;;5029711;28;20024;-74
2022/07/22 07:01:51;;;;;;;;;;;22.20;65.50;;;;;;5017716;28;19933;-75
2022/07/22 07:04:19;;;;;;;;;;;22.30;65.50;;;;;;5016562;28;20960;-72
2022/07/22 07:06:46;;;;;;;;;;;22.30;65.60;;;;;;5020565;28;19947;-70
2022/07/22 07:09:12;;;;;;;;;;;22.20;65.50;;;;;;5033046;28;19935;-71
2022/07/22 07:11:39;;;;;;;;;;;22.30;65.60;;;;;;5012756;28;19932;-71
2022/07/22 07:14:06;;;;;;;;;;;22.20;65.60;;;;;;5025817;28;19933;-70
2022/07/22 07:16:32;;;;;;;;;;;22.30;65.90;;;;;;5019720;28;19932;-70
2022/07/22 07:18:59;;;;;;;;;;;22.30;65.70;;;;;;5027441;28;19929;-70
2022/07/22 07:21:27;;;;;;;;;;;22.30;65.80;;;;;;5025387;28;19936;-71
2022/07/22 07:23:53;;;;;;;;;;;22.30;65.80;;;;;;5023187;28;19940;-71
2022/07/22 07:26:20;;;;;;;;;;;22.30;65.90;;;;;;5019601;28;19929;-70
2022/07/22 07:28:47;;;;;;;;;;;22.40;65.90;;;;;;5022040;28;19933;-71
2022/07/22 07:31:13;;;;;;;;;;;22.40;65.80;;;;;;5025283;28;19929;-71
2022/07/22 07:33:40;;;;;;;;;;;22.40;65.80;;;;;;5020618;28;19929;-71
2022/07/22 07:36:06;;;;;;;;;;;22.40;65.80;;;;;;5026673;28;19936;-71
2022/07/22 07:38:35;;;;;;;;;;;22.40;65.70;;;;;;5019962;28;19937;-71
2022/07/22 07:41:02;;;;;;;;;;;22.40;65.60;;;;;;5021249;28;20010;-70
2022/07/22 07:43:29;;;;;;;;;;;22.50;66.30;;;;;;5023009;28;19929;-71
2022/07/22 07:45:55;;;;;;;;;;;22.50;65.50;;;;;;5018696;28;19933;-71
2022/07/22 07:48:22;;;;;;;;;;;22.50;65.50;;;;;;5025080;28;19924;-71
2022/07/22 07:50:48;;;;;;;;;;;22.50;65.50;;;;;;5016841;28;19929;-71
2022/07/22 07:53:15;;;;;;;;;;;22.50;65.60;;;;;;5024720;28;20360;-71
2022/07/22 07:55:43;;;;;;;;;;;22.60;65.60;;;;;;5024329;28;19929;-71
2022/07/22 07:58:10;;;;;;;;;;;22.60;65.60;;;;;;5015690;28;19929;-71
2022/07/22 08:00:38;;;;;;;;;;;22.60;65.60;;;;;;5010587;28;19937;-71
2022/07/22 08:03:05;;;;;;;;;;;22.60;65.50;;;;;;5018044;28;20756;-70
2022/07/22 08:05:32;;;;;;;;;;;22.60;65.30;;;;;;5017418;28;19929;-71
2022/07/22 08:07:59;;;;;;;;;;;22.70;65.40;;;;;;5019999;28;19932;-70
2022/07/22 08:10:26;;;;;;;;;;;22.70;65.30;;;;;;5022089;28;19935;-71
2022/07/22 08:12:56;;;;;;;;;;;22.70;65.30;;;;;;5022348;28;19933;-71
2022/07/22 08:15:22;;;;;;;;;;;22.80;65.30;;;;;;5017882;28;20034;-71
2022/07/22 08:17:49;;;;;;;;;;;22.80;65.30;;;;;;5023887;28;20278;-71
2022/07/22 08:20:15;;;;;;;;;;;22.80;65.30;;;;;;5014308;28;19932;-71
2022/07/22 08:22:42;;;;;;;;;;;22.80;65.30;;;;;;5018152;28;19937;-71
2022/07/22 08:25:09;;;;;;;;;;;22.80;65.30;;;;;;5018795;28;19936;-71
2022/07/22 08:27:36;;;;;;;;;;;22.80;65.20;;;;;;5018160;28;19929;-71
2022/07/22 08:30:05;;;;;;;;;;;22.90;65.10;;;;;;5020292;28;19929;-71
2022/07/22 08:32:32;;;;;;;;;;;22.90;65.00;;;;;;5023167;28;20417;-77
2022/07/22 08:34:58;;;;;;;;;;;23.00;64.90;;;;;;5035095;28;19929;-77
2022/07/22 08:37:25;;;;;;;;;;;23.00;65.20;;;;;;5018350;28;19952;-78
2022/07/22 08:39:53;;;;;;;;;;;23.20;64.40;;;;;;5033103;28;19936;-78
2022/07/22 08:42:20;;;;;;;;;;;23.40;64.00;;;;;;5017095;28;19933;-77
2022/07/22 08:44:48;;;;;;;;;;;23.60;62.50;;;;;;5018191;28;19929;-78
2022/07/22 08:47:16;;;;;;;;;;;23.80;62.20;;;;;;5024675;28;19937;-79
2022/07/22 08:49:42;;;;;;;;;;;24.00;61.30;;;;;;5029756;28;19932;-79
2022/07/22 08:52:09;;;;;;;;;;;24.20;60.60;;;;;;5019148;28;19933;-82
2022/07/22 08:54:36;;;;;;;;;;;24.40;59.60;;;;;;5018730;28;19929;-77
2022/07/22 08:57:02;;;;;;;;;;;24.50;59.30;;;;;;5017320;28;19934;-77
2022/07/22 08:59:29;;;;;;;;;;;24.70;59.40;;;;;;5025564;28;19929;-78
2022/07/22 09:02:02;;;;;;;;;;;24.90;58.90;;;;;;5017333;28;19937;-83
2022/07/22 09:04:30;;;;;;;;;;;25.00;58.10;;;;;;5020633;28;19935;-71
2022/07/22 09:06:56;;;;;;;;;;;25.00;57.90;;;;;;5018528;28;20740;-72
2022/07/22 09:09:30;;;;;;;;;;;24.90;58.60;;;;;;5026088;28;19936;-71
2022/07/22 09:12:04;;;;;;;;;;;24.70;59.10;;;;;;5015523;28;19944;-71
2022/07/22 09:14:43;;;;;;;;;;;24.60;59.80;;;;;;5025415;28;19929;-70
2022/07/22 09:17:22;;;;;;;;;;;24.40;60.30;;;;;;5025628;28;19944;-70
2022/07/22 09:19:50;;;;;;;;;;;24.30;61.00;;;;;;5026830;28;19936;-71
2022/07/22 09:22:30;;;;;;;;;;;24.30;61.50;;;;;;5018237;28;19928;-70
2022/07/22 09:24:57;;;;;;;;;;;24.20;61.70;;;;;;5022479;28;19952;-71
2022/07/22 09:27:24;;;;;;;;;;;24.20;62.20;;;;;;5023199;28;20591;-71
2022/07/22 09:29:50;;;;;;;;;;;24.20;62.10;;;;;;5022795;28;20020;-71
2022/07/22 09:32:17;;;;;;;;;;;24.20;61.70;;;;;;5030628;28;19971;-71
2022/07/22 09:34:43;;;;;;;;;;;24.20;61.60;;;;;;5024446;28;19929;-70
2022/07/22 09:37:12;;;;;;;;;;;24.20;61.70;;;;;;5025430;28;19934;-70
2022/07/22 09:39:38;;;;;;;;;;;24.20;61.30;;;;;;5022970;28;19941;-70
2022/07/22 09:42:06;;;;;;;;;;;24.30;61.00;;;;;;5024077;28;20634;-70
2022/07/22 09:44:32;;;;;;;;;;;24.30;60.90;;;;;;5021260;28;19933;-70
2022/07/22 09:46:59;;;;;;;;;;;24.30;60.90;;;;;;5020491;28;19940;-71
2022/07/22 09:49:32;;;;;;;;;;;24.40;61.10;;;;;;5016233;28;19933;-71
2022/07/22 09:52:00;;;;;;;;;;;24.40;61.20;;;;;;5015164;28;19941;-71
2022/07/22 09:54:29;;;;;;;;;;;24.50;61.10;;;;;;5020344;28;20518;-71
2022/07/22 09:56:55;;;;;;;;;;;24.50;60.80;;;;;;5019458;28;19929;-70
2022/07/22 09:59:22;;;;;;;;;;;24.60;60.30;;;;;;5024164;28;19936;-71
2022/07/22 10:01:51;;;;;;;;;;;24.60;60.00;;;;;;5017104;28;19929;-70
2022/07/22 10:04:20;;;;;;;;;;;24.70;59.90;;;;;;5018235;28;19929;-70
2022/07/22 10:06:48;;;;;;;;;;;24.70;60.10;;;;;;5025032;28;20341;-69
2022/07/22 10:09:15;;;;;;;;;;;24.80;59.80;;;;;;5025279;28;19929;-70
2022/07/22 10:11:45;;;;;;;;;;;24.80;59.60;;;;;;5022698;28;20563;-70
2022/07/22 10:14:11;;;;;;;;;;;24.90;59.50;;;;;;5017895;28;20013;-70
2022/07/22 10:16:38;;;;;;;;;;;25.00;59.30;;;;;;5026283;28;19936;-70
2022/07/22 10:19:05;;;;;;;;;;;25.10;59.20;;;;;;5026654;28;19929;-71
2022/07/22 10:21:33;;;;;;;;;;;25.10;59.10;;;;;;5021647;28;19933;-70
2022/07/22 10:24:12;;;;;;;;;;;25.20;58.80;;;;;;5020140;28;19984;-71
2022/07/22 10:26:51;;;;;;;;;;;25.20;58.60;;;;;;5021386;28;20392;-71
2022/07/22 10:29:28;;;;;;;;;;;25.30;58.40;;;;;;5016058;28;19929;-70
2022/07/22 10:32:14;;;;;;;;;;;25.30;58.20;;;;;;5020634;28;20389;-70
2022/07/22 10:34:40;;;;;;;;;;;25.40;58.00;;;;;;5018315;28;19933;-70
2022/07/22 10:37:37;;;;;;;;;;;25.50;58.10;;;;;;5018999;28;19932;-71
2022/07/22 10:40:11;;;;;;;;;;;25.60;58.00;;;;;;5023778;28;19936;-70
2022/07/22 10:42:52;;;;;;;;;;;25.60;57.80;;;;;;5023112;28;19929;-70
2022/07/22 10:45:21;;;;;;;;;;;25.70;57.80;;;;;;5020951;28;20385;-71
2022/07/22 10:47:54;;;;;;;;;;;25.80;57.90;;;;;;5022046;28;20405;-71
2022/07/22 10:50:39;;;;;;;;;;;25.80;57.40;;;;;;5021565;28;20028;-71
2022/07/22 10:53:07;;;;;;;;;;;25.90;57.20;;;;;;5033778;28;19935;-70
2022/07/22 10:55:34;;;;;;;;;;;26.00;56.70;;;;;;5025606;28;19940;-70
2022/07/22 10:58:26;;;;;;;;;;;26.10;56.80;;;;;;5031415;28;21524;-70
2022/07/22 11:00:54;;;;;;;;;;;26.20;56.80;;;;;;5017619;28;19936;-71
2022/07/22 11:03:24;;;;;;;;;;;26.20;57.10;;;;;;5020892;28;19928;-71
2022/07/22 11:05:51;;;;;;;;;;;26.30;57.10;;;;;;5025918;28;19929;-70
2022/07/22 11:08:18;;;;;;;;;;;26.30;57.00;;;;;;5021924;28;19936;-70
2022/07/22 11:10:47;;;;;;;;;;;26.40;56.90;;;;;;5021418;28;19980;-71
2022/07/22 11:13:14;;;;;;;;;;;26.50;56.40;;;;;;5020661;28;19932;-71
2022/07/22 11:15:40;;;;;;;;;;;26.50;56.20;;;;;;5026881;28;19936;-71
2022/07/22 11:18:08;;;;;;;;;;;26.60;56.10;;;;;;5023906;28;19936;-71
2022/07/22 11:20:35;;;;;;;;;;;26.60;55.90;;;;;;5024408;28;19940;-71
2022/07/22 11:23:02;;;;;;;;;;;26.70;56.10;;;;;;5023057;28;19990;-71
2022/07/22 11:25:29;;;;;;;;;;;26.70;55.90;;;;;;5017332;28;20503;-71
2022/07/22 11:27:57;;;;;;;;;;;26.80;55.70;;;;;;5018116;28;20000;-71
2022/07/22 11:30:24;;;;;;;;;;;26.90;55.30;;;;;;5020369;28;19929;-71
2022/07/22 11:32:50;;;;;;;;;;;26.90;55.60;;;;;;5027504;28;20344;-71
2022/07/22 11:35:18;;;;;;;;;;;27.00;55.40;;;;;;5022321;28;19929;-71
2022/07/22 11:37:55;;;;;;;;;;;27.00;55.40;;;;;;5020876;28;19929;-71
2022/07/22 11:40:21;;;;;;;;;;;27.10;54.70;;;;;;5027365;28;19941;-70
2022/07/22 11:43:00;;;;;;;;;;;27.20;54.20;;;;;;5021717;28;19933;-71
2022/07/22 11:45:27;;;;;;;;;;;27.20;54.30;;;;;;5014490;28;19937;-70
2022/07/22 11:47:54;;;;;;;;;;;27.30;54.30;;;;;;5021315;28;19929;-71
2022/07/22 11:50:31;;;;;;;;;;;27.30;54.20;;;;;;5031567;28;19933;-70
2022/07/22 11:52:57;;;;;;;;;;;27.40;54.00;;;;;;5028983;28;19932;-71
2022/07/22 11:55:24;;;;;;;;;;;27.50;53.60;;;;;;5023386;28;20308;-71
2022/07/22 11:57:50;;;;;;;;;;;27.50;53.10;;;;;;5026305;28;19933;-70
2022/07/22 12:00:17;;;;;;;;;;;27.60;53.50;;;;;;5023223;28;21078;-71
2022/07/22 12:02:44;;;;;;;;;;;27.60;53.40;;;;;;5015294;28;19930;-71
2022/07/22 12:05:11;;;;;;;;;;;27.70;53.40;;;;;;5020495;28;19936;-71
2022/07/22 12:07:39;;;;;;;;;;;27.80;53.30;;;;;;5020916;28;20055;-71
2022/07/22 12:10:06;;;;;;;;;;;27.80;52.70;;;;;;5023928;28;19944;-71
2022/07/22 12:12:39;;;;;;;;;;;27.90;52.60;;;;;;5021375;28;19933;-70
2022/07/22 12:15:06;;;;;;;;;;;27.90;52.70;;;;;;5021031;28;20577;-71
2022/07/22 12:17:33;;;;;;;;;;;28.00;52.70;;;;;;5029485;28;20351;-70
2022/07/22 12:20:09;;;;;;;;;;;28.10;52.70;;;;;;5022370;28;20654;-71
2022/07/22 12:22:44;;;;;;;;;;;28.10;52.60;;;;;;5018737;28;19933;-70
2022/07/22 12:25:12;;;;;;;;;;;28.20;52.60;;;;;;5020437;28;19929;-71
2022/07/22 12:27:39;;;;;;;;;;;28.20;52.70;;;;;;5011080;28;19934;-71
2022/07/22 12:30:12;;;;;;;;;;;28.30;52.30;;;;;;5020824;28;20463;-71
2022/07/22 12:32:47;;;;;;;;;;;28.30;52.30;;;;;;5022110;28;19940;-71
2022/07/22 12:35:15;;;;;;;;;;;28.40;52.30;;;;;;5017598;28;19929;-71
2022/07/22 12:37:42;;;;;;;;;;;28.50;51.90;;;;;;5025337;28;19929;-71
2022/07/22 12:40:10;;;;;;;;;;;28.50;51.50;;;;;;5021460;28;19933;-69
2022/07/22 12:42:39;;;;;;;;;;;28.60;51.10;;;;;;5020305;28;19983;-71
2022/07/22 12:45:07;;;;;;;;;;;28.60;51.30;;;;;;5021093;28;20385;-70
2022/07/22 12:47:45;;;;;;;;;;;28.70;51.50;;;;;;5022136;28;19929;-71
2022/07/22 12:50:22;;;;;;;;;;;28.70;51.50;;;;;;5021784;28;19929;-70
2022/07/22 12:52:49;;;;;;;;;;;28.80;51.20;;;;;;5020071;28;19935;-71
2022/07/22 12:55:16;;;;;;;;;;;28.90;51.30;;;;;;5030754;28;19929;-71
2022/07/22 12:57:44;;;;;;;;;;;28.90;51.30;;;;;;5026140;28;20009;-71
2022/07/22 13:00:11;;;;;;;;;;;29.00;51.40;;;;;;5020195;28;19933;-74
2022/07/22 13:02:38;;;;;;;;;;;29.00;51.20;;;;;;5021835;28;19929;-76
2022/07/22 13:05:05;;;;;;;;;;;29.10;50.80;;;;;;5021321;28;20016;-76
2022/07/22 13:07:32;;;;;;;;;;;29.20;51.00;;;;;;5020715;28;19940;-75
2022/07/22 13:09:58;;;;;;;;;;;29.20;50.80;;;;;;5019031;28;19929;-75
2022/07/22 13:12:25;;;;;;;;;;;29.20;50.50;;;;;;5023232;28;20376;-76
2022/07/22 13:14:53;;;;;;;;;;;29.30;50.10;;;;;;5022188;28;19940;-75
2022/07/22 13:17:19;;;;;;;;;;;29.40;50.20;;;;;;5019871;28;20035;-76
2022/07/22 13:19:46;;;;;;;;;;;29.40;50.20;;;;;;5023799;28;20003;-76
2022/07/22 13:22:12;;;;;;;;;;;29.50;50.00;;;;;;5025046;28;19929;-77
2022/07/22 13:24:39;;;;;;;;;;;29.50;49.80;;;;;;5024732;28;20302;-77
2022/07/22 13:27:05;;;;;;;;;;;29.50;49.90;;;;;;5022362;28;20654;-77
2022/07/22 13:29:32;;;;;;;;;;;29.60;49.90;;;;;;5018852;28;19936;-74
2022/07/22 13:32:00;;;;;;;;;;;29.70;49.90;;;;;;5021687;28;19929;-76
2022/07/22 13:34:27;;;;;;;;;;;29.70;50.00;;;;;;5021768;28;20304;-76
2022/07/22 13:36:53;;;;;;;;;;;29.80;49.70;;;;;;5018585;28;19972;-77
2022/07/22 13:39:20;;;;;;;;;;;29.90;49.50;;;;;;5020816;28;20340;-76
2022/07/22 13:41:46;;;;;;;;;;;29.90;49.00;;;;;;5022192;28;19928;-77
2022/07/22 13:44:13;;;;;;;;;;;30.00;48.30;;;;;;5023382;28;19929;-76
2022/07/22 13:46:39;;;;;;;;;;;30.00;48.80;;;;;;5023699;28;19929;-76
2022/07/22 13:49:07;;;;;;;;;;;30.10;48.90;;;;;;5021957;28;20019;-77
2022/07/22 13:51:34;;;;;;;;;;;30.20;47.80;;;;;;5023809;28;19933;-77
2022/07/22 13:54:00;;;;;;;;;;;30.20;48.10;;;;;;5021579;28;19940;-76
2022/07/22 13:56:27;;;;;;;;;;;30.30;48.30;;;;;;5024428;28;19929;-76
2022/07/22 13:58:54;;;;;;;;;;;30.30;48.40;;;;;;5022457;28;19940;-77
2022/07/22 14:01:20;;;;;;;;;;;30.40;48.20;;;;;;5021211;28;19940;-77
2022/07/22 14:03:47;;;;;;;;;;;30.40;47.90;;;;;;5020659;28;19928;-76
2022/07/22 14:06:15;;;;;;;;;;;30.50;47.70;;;;;;5019767;28;19933;-76
2022/07/22 14:08:41;;;;;;;;;;;30.60;47.70;;;;;;5022052;28;19929;-77
2022/07/22 14:11:08;;;;;;;;;;;30.60;47.60;;;;;;5021965;28;19928;-78
2022/07/22 14:13:34;;;;;;;;;;;30.70;47.80;;;;;;5025081;28;19928;-77
2022/07/22 14:16:33;;;;;;;;;;;30.80;47.80;;;;;;5022548;28;19936;-77
2022/07/22 14:18:48;;;;;;;;;;;30.80;47.50;;;;;;5018872;28;19951;-77